Terminal Aerodrome Forecast
Issued by NWS Corpus Christi, TX

Home | Current Version | Previous Version | Text Only | Print | Product List | Glossary On
Versions: 1 2 3 4 5 6 7 8 9 10 11 12 13 14 15 16 17 18 19 20 21
203
FTUS44 KCRP 221738
TAFCRP
TAF
KCRP 221738Z 2218/2318 13014G19KT P6SM VCSH SCT025 BKN035
     FM230000 12012KT P6SM SCT015 SCT025
     FM230400 14015KT P6SM BKN015
     FM231400 15015G20KT P6SM SCT018 BKN025=

USA.gov is the U.S. government's official web portal to all federal, state and local government web resources and services.